Time;durP1;ratioP1;P1;durP2;ratioP2;P2;SDS_P1;SDS_P2;PMS_P1;PMS_P2;Temp;Humidity;BMP_temperature;BMP_pressure;BME280_temperature;BME280_humidity;BME280_pressure;Samples;Min_cycle;Max_cycle;Signal;HPM_P1;HPM_P2
2022/08/23 00:00:33;;;;;;;;;;;25.40;84.20;;;;;;5045408;28;19935;-62
2022/08/23 00:02:59;;;;;;;;;;;25.60;84.50;;;;;;5061458;28;19924;-61
2022/08/23 00:05:25;;;;;;;;;;;25.50;84.30;;;;;;5046491;28;19931;-61
2022/08/23 00:07:50;;;;;;;;;;;25.40;84.40;;;;;;5054343;28;20011;-61
2022/08/23 00:10:16;;;;;;;;;;;25.70;84.50;;;;;;5069702;28;19928;-61
2022/08/23 00:12:42;;;;;;;;;;;25.50;84.50;;;;;;5053900;28;19924;-61
2022/08/23 00:15:08;;;;;;;;;;;25.50;84.70;;;;;;5056473;28;19932;-63
2022/08/23 00:17:34;;;;;;;;;;;25.60;84.40;;;;;;5060181;28;20259;-61
2022/08/23 00:20:00;;;;;;;;;;;25.60;84.60;;;;;;5055273;28;19924;-61
2022/08/23 00:22:26;;;;;;;;;;;25.40;84.70;;;;;;5059281;28;19924;-63
2022/08/23 00:24:51;;;;;;;;;;;25.30;84.30;;;;;;5054451;28;19929;-62
2022/08/23 00:27:17;;;;;;;;;;;25.40;84.40;;;;;;5071899;28;19963;-61
2022/08/23 00:29:47;;;;;;;;;;;25.60;84.60;;;;;;5084408;28;19924;-61
2022/08/23 00:32:13;;;;;;;;;;;25.40;83.30;;;;;;5061944;28;19921;-62
2022/08/23 00:34:39;;;;;;;;;;;25.30;84.70;;;;;;5054519;28;19925;-62
2022/08/23 00:37:05;;;;;;;;;;;25.40;84.40;;;;;;5066613;28;19970;-61
2022/08/23 00:39:30;;;;;;;;;;;25.50;84.50;;;;;;5059653;28;19932;-61
2022/08/23 00:41:57;;;;;;;;;;;25.60;84.60;;;;;;5054612;28;20019;-62
2022/08/23 00:49:54;;;;;;;;;;;25.40;83.90;;;;;;5062470;28;19932;-61
2022/08/23 00:52:26;;;;;;;;;;;25.20;84.80;;;;;;5086177;28;19925;-61
2022/08/23 00:54:52;;;;;;;;;;;25.30;83.40;;;;;;5066887;28;19931;-62
2022/08/23 00:57:18;;;;;;;;;;;25.40;84.80;;;;;;5087996;28;20268;-62
2022/08/23 00:59:44;;;;;;;;;;;25.40;84.60;;;;;;5071533;28;20031;-61
2022/08/23 01:02:09;;;;;;;;;;;25.40;84.80;;;;;;5058046;28;20032;-61
2022/08/23 01:04:39;;;;;;;;;;;25.70;84.90;;;;;;5057200;28;19925;-61
2022/08/23 01:07:13;;;;;;;;;;;25.40;83.40;;;;;;5043995;28;20015;-62
2022/08/23 01:09:39;;;;;;;;;;;25.50;83.50;;;;;;5066498;28;20358;-62
2022/08/23 01:12:09;;;;;;;;;;;25.20;84.40;;;;;;5060141;28;19970;-61
2022/08/23 01:14:39;;;;;;;;;;;25.30;84.80;;;;;;5069687;28;19967;-62
2022/08/23 01:17:06;;;;;;;;;;;25.20;84.70;;;;;;5065703;28;20286;-61
2022/08/23 01:19:35;;;;;;;;;;;25.60;85.00;;;;;;5061297;28;19924;-61
2022/08/23 01:22:08;;;;;;;;;;;25.20;83.40;;;;;;5042501;28;20007;-61
2022/08/23 01:24:33;;;;;;;;;;;25.70;83.70;;;;;;5062514;28;19990;-61
2022/08/23 01:26:59;;;;;;;;;;;25.20;84.50;;;;;;5054095;28;19928;-61
2022/08/23 01:29:24;;;;;;;;;;;25.40;84.40;;;;;;5081065;28;19925;-62
2022/08/23 01:31:50;;;;;;;;;;;25.20;84.40;;;;;;5057408;28;19929;-61
2022/08/23 01:34:17;;;;;;;;;;;25.40;84.60;;;;;;5060605;28;19925;-61
2022/08/23 01:36:43;;;;;;;;;;;25.50;84.70;;;;;;5069648;28;20416;-61
2022/08/23 01:39:09;;;;;;;;;;;25.00;84.30;;;;;;5073104;28;19936;-62
2022/08/23 01:41:37;;;;;;;;;;;25.40;84.40;;;;;;5058045;28;20278;-61
2022/08/23 01:44:04;;;;;;;;;;;25.20;84.20;;;;;;5039018;28;20062;-61
2022/08/23 01:46:30;;;;;;;;;;;25.40;84.60;;;;;;5057159;28;20328;-62
2022/08/23 01:48:57;;;;;;;;;;;25.60;84.40;;;;;;5058596;28;20011;-68
2022/08/23 01:51:23;;;;;;;;;;;25.20;84.40;;;;;;5069122;28;19928;-61
2022/08/23 01:53:49;;;;;;;;;;;25.50;84.30;;;;;;5076126;28;19936;-62
2022/08/23 01:56:19;;;;;;;;;;;25.60;84.50;;;;;;5071801;28;19947;-61
2022/08/23 01:58:45;;;;;;;;;;;25.30;84.30;;;;;;5058201;28;19932;-61
2022/08/23 02:01:10;;;;;;;;;;;25.10;84.10;;;;;;5074440;28;19924;-62
2022/08/23 02:03:36;;;;;;;;;;;25.10;84.00;;;;;;5056084;28;19929;-61
2022/08/23 02:06:02;;;;;;;;;;;25.20;83.90;;;;;;5056970;28;20298;-62
2022/08/23 02:11:14;;;;;;;;;;;25.20;83.20;;;;;;5057334;28;19938;-61
2022/08/23 02:13:40;;;;;;;;;;;25.40;84.40;;;;;;5073975;28;19931;-62
2022/08/23 02:16:05;;;;;;;;;;;25.40;84.50;;;;;;5061514;28;19925;-61
2022/08/23 02:18:31;;;;;;;;;;;25.00;83.60;;;;;;5056358;28;19932;-61
2022/08/23 02:20:56;;;;;;;;;;;24.90;83.70;;;;;;5056907;28;19925;-61
2022/08/23 02:23:22;;;;;;;;;;;25.10;84.10;;;;;;5066096;28;19924;-61
2022/08/23 02:25:50;;;;;;;;;;;25.10;84.00;;;;;;5073727;28;19974;-62
2022/08/23 02:28:16;;;;;;;;;;;25.40;84.60;;;;;;5041203;28;20022;-61
2022/08/23 02:30:42;;;;;;;;;;;25.20;84.10;;;;;;5056654;28;19987;-61
2022/08/23 02:33:08;;;;;;;;;;;25.30;84.50;;;;;;5060530;28;19925;-61
2022/08/23 02:35:34;;;;;;;;;;;25.40;84.30;;;;;;5075092;28;20387;-61
2022/08/23 02:38:03;;;;;;;;;;;25.20;84.10;;;;;;5053579;28;19925;-61
2022/08/23 02:40:29;;;;;;;;;;;25.20;83.00;;;;;;5063911;28;20019;-61
2022/08/23 02:42:54;;;;;;;;;;;25.10;84.10;;;;;;5059459;28;20012;-61
2022/08/23 02:45:20;;;;;;;;;;;25.10;84.10;;;;;;5063463;28;20401;-61
2022/08/23 02:47:46;;;;;;;;;;;25.20;84.20;;;;;;5056514;28;19967;-61
2022/08/23 02:50:12;;;;;;;;;;;24.90;83.90;;;;;;5058337;28;19936;-61
2022/08/23 02:52:38;;;;;;;;;;;25.30;84.20;;;;;;5055876;28;19928;-61
2022/08/23 02:55:03;;;;;;;;;;;25.00;83.90;;;;;;5062595;28;19924;-61
2022/08/23 02:57:29;;;;;;;;;;;25.10;83.80;;;;;;5056195;28;19920;-61
2022/08/23 02:59:56;;;;;;;;;;;25.40;84.20;;;;;;5058528;28;20492;-61
2022/08/23 03:02:22;;;;;;;;;;;25.30;84.20;;;;;;5055792;28;19925;-61
2022/08/23 03:04:48;;;;;;;;;;;25.20;84.00;;;;;;5055956;28;20306;-62
2022/08/23 03:07:13;;;;;;;;;;;25.20;84.00;;;;;;5059344;28;20367;-61
2022/08/23 03:09:39;;;;;;;;;;;25.00;83.70;;;;;;5058353;28;20278;-61
2022/08/23 03:12:05;;;;;;;;;;;25.20;84.00;;;;;;5056090;28;20020;-62
2022/08/23 03:14:31;;;;;;;;;;;25.30;83.80;;;;;;5056225;28;19925;-61
2022/08/23 03:16:56;;;;;;;;;;;24.90;83.90;;;;;;5057830;28;20279;-61
2022/08/23 03:19:23;;;;;;;;;;;25.10;83.80;;;;;;5055885;28;20043;-61
2022/08/23 03:21:48;;;;;;;;;;;25.20;84.10;;;;;;5074763;28;20389;-61
2022/08/23 03:24:14;;;;;;;;;;;25.10;84.30;;;;;;5074660;28;19924;-63
2022/08/23 03:26:41;;;;;;;;;;;25.10;84.10;;;;;;5057655;28;19928;-61
2022/08/23 03:29:06;;;;;;;;;;;25.30;84.30;;;;;;5055238;28;20279;-61
2022/08/23 03:31:32;;;;;;;;;;;24.90;83.90;;;;;;5055131;28;19924;-61
2022/08/23 03:33:57;;;;;;;;;;;25.40;84.00;;;;;;5068701;28;19951;-61
2022/08/23 03:36:23;;;;;;;;;;;25.10;84.00;;;;;;5071633;28;19932;-61
2022/08/23 03:38:49;;;;;;;;;;;25.10;83.90;;;;;;5069534;28;19924;-61
2022/08/23 03:41:14;;;;;;;;;;;25.00;83.90;;;;;;5058738;28;20007;-63
2022/08/23 03:43:40;;;;;;;;;;;24.80;83.70;;;;;;5054726;28;19925;-61
2022/08/23 03:46:06;;;;;;;;;;;25.30;83.90;;;;;;5054659;28;20063;-62
2022/08/23 03:48:32;;;;;;;;;;;24.90;84.00;;;;;;5069188;28;19931;-61
2022/08/23 03:50:59;;;;;;;;;;;25.00;83.90;;;;;;5056114;28;20309;-62
2022/08/23 03:53:24;;;;;;;;;;;25.00;84.10;;;;;;5054539;28;19921;-61
2022/08/23 03:55:50;;;;;;;;;;;25.20;84.00;;;;;;5054592;28;20359;-61
2022/08/23 03:58:16;;;;;;;;;;;24.90;84.10;;;;;;5057034;28;19928;-61
2022/08/23 04:00:42;;;;;;;;;;;24.90;84.10;;;;;;5059348;28;19998;-61
2022/08/23 04:03:08;;;;;;;;;;;25.00;84.20;;;;;;5065973;28;19929;-61
2022/08/23 04:05:34;;;;;;;;;;;24.80;83.90;;;;;;5034197;28;19971;-61
2022/08/23 04:08:01;;;;;;;;;;;24.80;83.90;;;;;;5044710;28;19968;-61
2022/08/23 04:10:26;;;;;;;;;;;25.00;84.10;;;;;;5053381;28;19925;-61
2022/08/23 04:12:53;;;;;;;;;;;24.80;84.10;;;;;;5047689;28;19931;-62
2022/08/23 04:15:19;;;;;;;;;;;24.80;84.10;;;;;;5052092;28;20019;-61
2022/08/23 04:17:44;;;;;;;;;;;24.60;84.00;;;;;;5053748;28;20372;-61
2022/08/23 04:20:10;;;;;;;;;;;24.90;84.00;;;;;;5036687;28;19924;-62
2022/08/23 04:22:36;;;;;;;;;;;24.60;83.90;;;;;;5046467;28;19931;-62
2022/08/23 04:25:02;;;;;;;;;;;25.20;84.20;;;;;;5041632;28;19972;-61
2022/08/23 04:27:28;;;;;;;;;;;24.90;84.20;;;;;;5034005;28;19936;-62
2022/08/23 04:29:54;;;;;;;;;;;24.80;83.90;;;;;;5042165;28;19944;-61
2022/08/23 04:32:20;;;;;;;;;;;24.80;84.00;;;;;;5035208;28;19929;-62
2022/08/23 04:34:47;;;;;;;;;;;25.10;84.20;;;;;;5034306;28;20414;-61
2022/08/23 04:37:13;;;;;;;;;;;24.70;84.00;;;;;;5034303;28;19925;-62
2022/08/23 04:42:23;;;;;;;;;;;24.80;83.00;;;;;;5034352;28;20023;-61
2022/08/23 04:44:49;;;;;;;;;;;25.00;84.00;;;;;;5034970;28;19980;-62
2022/08/23 04:47:15;;;;;;;;;;;24.80;83.60;;;;;;5038697;28;19925;-62
2022/08/23 04:49:41;;;;;;;;;;;24.70;83.70;;;;;;5042232;28;20279;-62
2022/08/23 04:52:06;;;;;;;;;;;25.10;83.90;;;;;;5050611;28;19971;-61
2022/08/23 04:54:32;;;;;;;;;;;24.80;83.70;;;;;;5048456;28;20345;-61
2022/08/23 04:56:57;;;;;;;;;;;24.70;83.50;;;;;;5033819;28;20020;-62
2022/08/23 04:59:23;;;;;;;;;;;24.90;83.60;;;;;;5033192;28;19983;-61
2022/08/23 05:01:49;;;;;;;;;;;24.90;83.50;;;;;;5034998;28;20286;-62
2022/08/23 05:04:15;;;;;;;;;;;25.00;83.80;;;;;;5066796;28;19925;-62
2022/08/23 05:06:40;;;;;;;;;;;24.90;83.20;;;;;;5033910;28;19929;-62
2022/08/23 05:09:06;;;;;;;;;;;25.10;83.10;;;;;;5033372;28;19941;-64
2022/08/23 05:11:32;;;;;;;;;;;25.30;83.40;;;;;;5034920;28;19925;-62
2022/08/23 05:13:57;;;;;;;;;;;25.30;83.10;;;;;;5034713;28;20023;-61
2022/08/23 05:16:24;;;;;;;;;;;25.40;83.00;;;;;;5041970;28;19980;-61
2022/08/23 05:18:49;;;;;;;;;;;25.10;82.70;;;;;;5043636;28;19925;-61
2022/08/23 05:21:19;;;;;;;;;;;25.10;82.60;;;;;;5051375;28;19948;-61
2022/08/23 05:23:44;;;;;;;;;;;25.20;82.80;;;;;;5040453;28;19925;-62
2022/08/23 05:26:10;;;;;;;;;;;25.40;82.60;;;;;;5037839;28;20386;-61
2022/08/23 05:28:38;;;;;;;;;;;25.40;82.40;;;;;;5049281;28;19947;-73
2022/08/23 05:31:05;;;;;;;;;;;25.20;82.20;;;;;;5036949;28;20268;-62
2022/08/23 05:33:31;;;;;;;;;;;25.40;82.50;;;;;;5045452;28;19971;-62
2022/08/23 05:35:57;;;;;;;;;;;25.60;82.60;;;;;;5039262;28;19920;-62
2022/08/23 05:38:23;;;;;;;;;;;25.40;81.90;;;;;;5037593;28;19932;-62
2022/08/23 05:40:49;;;;;;;;;;;25.70;81.90;;;;;;5049398;28;19931;-72
2022/08/23 05:43:15;;;;;;;;;;;25.50;81.10;;;;;;5052222;28;19925;-62
2022/08/23 05:45:40;;;;;;;;;;;25.80;80.40;;;;;;5040901;28;19950;-61
2022/08/23 05:48:06;;;;;;;;;;;25.90;80.30;;;;;;5043781;28;19979;-61
2022/08/23 05:50:34;;;;;;;;;;;25.60;79.70;;;;;;5044924;28;19925;-61
2022/08/23 05:53:00;;;;;;;;;;;25.60;80.00;;;;;;5037736;28;20394;-62
2022/08/23 05:55:25;;;;;;;;;;;25.80;79.90;;;;;;5037321;28;19926;-61
2022/08/23 05:57:51;;;;;;;;;;;25.40;79.40;;;;;;5045946;28;19948;-61
2022/08/23 06:00:17;;;;;;;;;;;25.70;79.80;;;;;;5036915;28;19925;-62
2022/08/23 06:02:43;;;;;;;;;;;25.60;79.50;;;;;;5038578;28;20425;-62
2022/08/23 06:05:08;;;;;;;;;;;25.60;79.20;;;;;;5065970;28;20012;-62
2022/08/23 06:07:34;;;;;;;;;;;25.90;79.30;;;;;;5071069;28;20332;-62
2022/08/23 06:10:00;;;;;;;;;;;26.00;79.10;;;;;;5071774;28;19970;-61
2022/08/23 06:12:26;;;;;;;;;;;26.00;79.20;;;;;;5056137;28;20015;-61
2022/08/23 06:14:51;;;;;;;;;;;25.90;78.70;;;;;;5057246;28;19925;-61
2022/08/23 06:17:17;;;;;;;;;;;26.00;78.80;;;;;;5057556;28;19933;-62
2022/08/23 06:19:43;;;;;;;;;;;26.10;78.50;;;;;;5058531;28;19967;-62
2022/08/23 06:22:08;;;;;;;;;;;26.00;78.70;;;;;;5066396;28;19975;-61
2022/08/23 06:24:34;;;;;;;;;;;26.30;78.80;;;;;;5056752;28;19925;-61
2022/08/23 06:27:00;;;;;;;;;;;26.10;78.20;;;;;;5063451;28;19979;-63
2022/08/23 06:29:26;;;;;;;;;;;26.40;78.60;;;;;;5071416;28;20397;-62
2022/08/23 06:31:51;;;;;;;;;;;26.30;78.10;;;;;;5056289;28;19921;-70
2022/08/23 06:34:31;;;;;;;;;;;26.60;78.10;;;;;;5067985;28;19967;-62
2022/08/23 06:36:57;;;;;;;;;;;26.40;76.70;;;;;;5056409;28;19979;-62
2022/08/23 06:39:23;;;;;;;;;;;26.70;78.00;;;;;;5070460;28;20378;-62
2022/08/23 06:41:49;;;;;;;;;;;26.80;78.00;;;;;;5065185;28;19925;-68
2022/08/23 06:44:15;;;;;;;;;;;26.80;77.60;;;;;;5051045;28;19931;-64
2022/08/23 06:46:41;;;;;;;;;;;26.80;77.80;;;;;;5065210;28;19970;-62
2022/08/23 06:49:06;;;;;;;;;;;26.80;77.80;;;;;;5065736;28;20309;-61
2022/08/23 06:51:39;;;;;;;;;;;26.70;77.40;;;;;;5058293;28;19950;-71
2022/08/23 06:54:06;;;;;;;;;;;26.50;76.00;;;;;;5060797;28;20324;-65
2022/08/23 06:56:32;;;;;;;;;;;26.80;77.50;;;;;;5068063;28;19978;-72
2022/08/23 06:58:58;;;;;;;;;;;26.80;77.20;;;;;;5067123;28;20064;-71
2022/08/23 07:01:26;;;;;;;;;;;27.00;77.00;;;;;;5066229;28;19924;-71
2022/08/23 07:03:54;;;;;;;;;;;27.00;75.50;;;;;;5074160;28;19932;-73
2022/08/23 07:06:22;;;;;;;;;;;27.00;76.60;;;;;;5055371;28;19925;-62
2022/08/23 07:08:49;;;;;;;;;;;27.00;76.50;;;;;;5073152;28;20301;-72
2022/08/23 07:11:14;;;;;;;;;;;27.00;76.30;;;;;;5071337;28;19925;-64
2022/08/23 07:13:40;;;;;;;;;;;27.30;76.20;;;;;;5070212;28;19932;-66
2022/08/23 07:16:06;;;;;;;;;;;27.20;76.00;;;;;;5073110;28;20023;-73
2022/08/23 07:18:31;;;;;;;;;;;27.50;76.30;;;;;;5072724;28;20420;-62
2022/08/23 07:20:57;;;;;;;;;;;27.40;75.80;;;;;;5079830;28;19954;-70
2022/08/23 07:23:24;;;;;;;;;;;27.70;76.60;;;;;;5081218;28;19931;-73
2022/08/23 07:25:50;;;;;;;;;;;27.40;75.80;;;;;;5080922;28;19928;-74
2022/08/23 07:28:15;;;;;;;;;;;27.40;75.60;;;;;;5059383;28;19951;-73
2022/08/23 07:30:41;;;;;;;;;;;27.50;75.30;;;;;;5079813;28;19965;-74
2022/08/23 07:33:07;;;;;;;;;;;27.50;75.30;;;;;;5084205;28;19938;-64
2022/08/23 07:35:32;;;;;;;;;;;27.70;75.20;;;;;;5075356;28;19924;-61
2022/08/23 07:37:58;;;;;;;;;;;27.80;75.30;;;;;;5083271;28;19927;-61
2022/08/23 07:40:24;;;;;;;;;;;27.90;74.80;;;;;;5077060;28;19954;-62
2022/08/23 07:42:49;;;;;;;;;;;27.70;74.70;;;;;;5077719;28;20386;-63
2022/08/23 07:45:15;;;;;;;;;;;28.00;74.50;;;;;;5080924;28;19925;-69
2022/08/23 07:47:41;;;;;;;;;;;27.80;74.60;;;;;;5077564;28;20034;-61
2022/08/23 07:50:07;;;;;;;;;;;27.90;74.40;;;;;;5070620;28;19924;-69
2022/08/23 07:52:34;;;;;;;;;;;28.00;74.10;;;;;;5065595;28;20336;-72
2022/08/23 07:55:00;;;;;;;;;;;27.90;74.10;;;;;;5067035;28;20043;-62
2022/08/23 07:57:26;;;;;;;;;;;28.00;73.90;;;;;;5064908;28;20027;-64
2022/08/23 07:59:51;;;;;;;;;;;28.40;74.50;;;;;;5066161;28;19932;-61
2022/08/23 08:02:17;;;;;;;;;;;27.90;73.80;;;;;;5065778;28;19935;-64
2022/08/23 08:04:43;;;;;;;;;;;28.10;73.70;;;;;;5061341;28;20425;-63
2022/08/23 08:07:08;;;;;;;;;;;28.30;73.90;;;;;;5065475;28;19932;-66
2022/08/23 08:09:34;;;;;;;;;;;28.00;73.70;;;;;;5072083;28;20366;-66
2022/08/23 08:12:00;;;;;;;;;;;28.00;73.40;;;;;;5046304;28;20390;-64
2022/08/23 08:14:26;;;;;;;;;;;28.10;73.60;;;;;;5064145;28;19939;-62
2022/08/23 08:16:54;;;;;;;;;;;28.00;73.90;;;;;;5065241;28;20378;-61
2022/08/23 08:19:21;;;;;;;;;;;28.10;73.50;;;;;;5067992;28;19977;-61
2022/08/23 08:21:47;;;;;;;;;;;28.20;72.50;;;;;;5070994;28;20270;-72
2022/08/23 08:24:14;;;;;;;;;;;28.20;72.50;;;;;;5070146;28;19925;-69
2022/08/23 08:26:40;;;;;;;;;;;28.40;72.20;;;;;;5065188;28;19924;-68
2022/08/23 08:29:06;;;;;;;;;;;28.00;72.10;;;;;;5072341;28;20453;-71
2022/08/23 08:31:33;;;;;;;;;;;28.10;72.60;;;;;;5053259;28;20015;-62
2022/08/23 08:33:58;;;;;;;;;;;28.10;72.70;;;;;;5069238;28;19931;-61
2022/08/23 08:36:32;;;;;;;;;;;28.00;72.50;;;;;;5067297;28;19929;-63
2022/08/23 08:38:58;;;;;;;;;;;28.40;71.80;;;;;;5070190;28;19928;-61
2022/08/23 08:41:50;;;;;;;;;;;28.20;72.50;;;;;;5038149;28;19931;-63
2022/08/23 08:44:15;;;;;;;;;;;28.00;71.60;;;;;;5036393;28;19924;-62
2022/08/23 08:46:41;;;;;;;;;;;28.00;71.90;;;;;;5071005;28;19970;-72
2022/08/23 08:49:07;;;;;;;;;;;28.30;72.20;;;;;;5063759;28;20387;-61
2022/08/23 08:51:36;;;;;;;;;;;28.10;72.00;;;;;;5072349;28;19975;-61
2022/08/23 08:54:02;;;;;;;;;;;28.50;71.20;;;;;;5053320;28;19924;-62
2022/08/23 08:56:34;;;;;;;;;;;28.20;72.40;;;;;;5066640;28;20389;-61
2022/08/23 08:59:01;;;;;;;;;;;28.40;72.30;;;;;;5068338;28;19939;-61
2022/08/23 09:01:27;;;;;;;;;;;28.30;72.20;;;;;;5071959;28;19936;-62
2022/08/23 09:03:54;;;;;;;;;;;28.40;72.30;;;;;;5066874;28;19925;-69
2022/08/23 09:06:19;;;;;;;;;;;28.30;72.30;;;;;;5073255;28;19924;-65
2022/08/23 09:08:45;;;;;;;;;;;28.10;71.50;;;;;;5075300;28;19958;-63
2022/08/23 09:11:30;;;;;;;;;;;28.20;71.50;;;;;;5069882;28;19924;-61
2022/08/23 09:14:16;;;;;;;;;;;28.20;70.60;;;;;;5073070;28;20326;-61
2022/08/23 09:16:52;;;;;;;;;;;28.30;72.40;;;;;;5049488;28;19924;-61
2022/08/23 09:19:18;;;;;;;;;;;28.40;71.00;;;;;;5052504;28;20398;-61
2022/08/23 09:21:48;;;;;;;;;;;28.70;72.40;;;;;;5055151;28;20062;-63
2022/08/23 09:24:14;;;;;;;;;;;28.40;70.70;;;;;;5051881;28;20321;-63
2022/08/23 09:26:40;;;;;;;;;;;28.50;71.20;;;;;;5036311;28;19932;-63
2022/08/23 09:29:24;;;;;;;;;;;28.50;71.40;;;;;;5054433;28;19932;-68
2022/08/23 09:31:54;;;;;;;;;;;28.60;70.50;;;;;;5056345;28;19929;-62
2022/08/23 09:34:41;;;;;;;;;;;28.50;70.50;;;;;;5054538;28;19924;-64
2022/08/23 09:37:12;;;;;;;;;;;28.20;71.50;;;;;;5056321;28;19998;-64
2022/08/23 09:39:39;;;;;;;;;;;28.50;70.20;;;;;;5056320;28;19935;-62
2022/08/23 09:42:28;;;;;;;;;;;28.40;71.60;;;;;;5057059;28;20317;-61
2022/08/23 09:44:55;;;;;;;;;;;28.40;70.20;;;;;;4979384;28;20372;-61
2022/08/23 09:47:21;;;;;;;;;;;28.40;71.40;;;;;;4994769;28;19926;-62
2022/08/23 09:49:47;;;;;;;;;;;28.60;71.30;;;;;;4993933;28;19929;-61
2022/08/23 09:52:13;;;;;;;;;;;28.20;71.10;;;;;;4994295;28;19926;-60
2022/08/23 09:54:39;;;;;;;;;;;28.30;71.20;;;;;;4994725;28;19937;-61
2022/08/23 09:57:08;;;;;;;;;;;28.30;71.50;;;;;;4988193;28;19972;-64
2022/08/23 09:59:33;;;;;;;;;;;28.20;71.50;;;;;;4993234;28;20703;-65
2022/08/23 10:01:59;;;;;;;;;;;28.30;71.40;;;;;;4995004;28;19953;-64
2022/08/23 10:04:27;;;;;;;;;;;28.40;71.00;;;;;;4978357;28;20411;-64
2022/08/23 10:06:53;;;;;;;;;;;28.50;70.20;;;;;;4993237;28;19932;-64
2022/08/23 10:09:28;;;;;;;;;;;28.20;71.00;;;;;;4994621;28;19925;-63
2022/08/23 10:11:55;;;;;;;;;;;28.50;70.10;;;;;;4993974;28;19932;-61
2022/08/23 10:14:21;;;;;;;;;;;28.40;71.30;;;;;;4994836;28;20409;-60
2022/08/23 10:16:47;;;;;;;;;;;28.10;70.80;;;;;;4992994;28;20020;-62
2022/08/23 10:19:12;;;;;;;;;;;28.40;70.70;;;;;;4993731;28;19932;-60
2022/08/23 10:21:39;;;;;;;;;;;28.40;70.70;;;;;;5011810;28;19925;-61
2022/08/23 10:24:24;;;;;;;;;;;28.70;71.10;;;;;;5055706;28;19924;-61
2022/08/23 10:29:35;;;;;;;;;;;28.40;69.30;;;;;;5052974;28;19944;-69
2022/08/23 10:29:51;;;;;;;;;;;28.60;69.50;;;;;;5050344;28;19932;-62
2022/08/23 10:32:20;;;;;;;;;;;28.70;71.00;;;;;;5056183;28;20311;-61
2022/08/23 10:34:49;;;;;;;;;;;28.50;71.00;;;;;;5055178;28;19921;-61
2022/08/23 10:37:33;;;;;;;;;;;28.50;69.60;;;;;;5053947;28;19928;-62
2022/08/23 10:39:58;;;;;;;;;;;28.40;69.50;;;;;;5055914;28;19983;-62
2022/08/23 10:42:27;;;;;;;;;;;28.40;70.60;;;;;;5055933;28;20394;-62
2022/08/23 10:45:02;;;;;;;;;;;28.80;69.70;;;;;;5055831;28;19931;-62
2022/08/23 10:47:32;;;;;;;;;;;28.90;69.80;;;;;;5069373;28;19931;-62
2022/08/23 10:49:59;;;;;;;;;;;28.40;70.80;;;;;;5054462;28;19943;-61
2022/08/23 10:52:45;;;;;;;;;;;28.60;71.00;;;;;;5054288;28;19931;-61
2022/08/23 10:55:23;;;;;;;;;;;28.50;70.40;;;;;;5037040;28;19925;-62
2022/08/23 10:57:49;;;;;;;;;;;28.50;70.40;;;;;;5068606;28;20011;-61
2022/08/23 11:00:19;;;;;;;;;;;28.40;70.00;;;;;;5037631;28;19972;-61
2022/08/23 11:02:49;;;;;;;;;;;28.40;70.20;;;;;;5055323;28;19932;-62
2022/08/23 11:05:20;;;;;;;;;;;28.80;69.30;;;;;;5055425;28;19925;-62
2022/08/23 11:07:56;;;;;;;;;;;28.50;69.00;;;;;;5052143;28;19925;-61
2022/08/23 11:10:33;;;;;;;;;;;28.90;69.20;;;;;;5053806;28;20275;-62
2022/08/23 11:13:11;;;;;;;;;;;28.50;68.90;;;;;;5055184;28;19925;-64
2022/08/23 11:15:38;;;;;;;;;;;28.60;69.20;;;;;;5055030;28;20011;-61
2022/08/23 11:18:07;;;;;;;;;;;28.70;70.80;;;;;;5054217;28;19924;-61
2022/08/23 11:20:48;;;;;;;;;;;28.60;69.30;;;;;;5053369;28;19971;-61
2022/08/23 11:23:32;;;;;;;;;;;28.60;68.90;;;;;;5055152;28;20015;-74
2022/08/23 11:25:58;;;;;;;;;;;28.70;69.00;;;;;;5054995;28;19932;-62
2022/08/23 11:28:24;;;;;;;;;;;28.50;70.20;;;;;;5054017;28;20386;-61
2022/08/23 11:30:50;;;;;;;;;;;28.70;69.60;;;;;;5053990;28;19936;-61
2022/08/23 11:33:16;;;;;;;;;;;29.00;70.30;;;;;;5053742;28;19995;-61
2022/08/23 11:35:47;;;;;;;;;;;28.80;69.90;;;;;;5054880;28;19926;-62
2022/08/23 11:38:13;;;;;;;;;;;28.50;68.60;;;;;;5054103;28;19925;-62
2022/08/23 11:40:40;;;;;;;;;;;28.80;69.70;;;;;;5052344;28;19929;-62
2022/08/23 11:43:08;;;;;;;;;;;28.70;69.70;;;;;;5035507;28;20256;-62
2022/08/23 11:45:34;;;;;;;;;;;28.80;69.90;;;;;;5053911;28;19947;-61
2022/08/23 11:48:02;;;;;;;;;;;28.70;69.60;;;;;;5054271;28;20529;-62
2022/08/23 11:50:32;;;;;;;;;;;28.70;68.20;;;;;;5054509;28;19925;-61
2022/08/23 11:53:33;;;;;;;;;;;28.90;69.80;;;;;;5053405;28;19920;-61
2022/08/23 11:56:08;;;;;;;;;;;29.10;68.60;;;;;;4992733;28;19932;-62
2022/08/23 11:58:52;;;;;;;;;;;28.80;68.40;;;;;;4992806;28;19933;-61
2022/08/23 12:01:26;;;;;;;;;;;28.80;68.50;;;;;;4991859;28;19996;-62
2022/08/23 12:03:58;;;;;;;;;;;29.10;69.90;;;;;;4976348;28;19969;-62
2022/08/23 12:06:34;;;;;;;;;;;29.20;68.40;;;;;;4991414;28;19932;-62
2022/08/23 12:09:11;;;;;;;;;;;29.10;68.10;;;;;;4990905;28;20455;-63
2022/08/23 12:11:55;;;;;;;;;;;29.10;67.80;;;;;;4992914;28;19926;-61
2022/08/23 12:14:29;;;;;;;;;;;29.50;68.00;;;;;;4992677;28;19925;-61
2022/08/23 12:16:55;;;;;;;;;;;28.70;67.40;;;;;;4992762;28;20392;-63
2022/08/23 12:19:29;;;;;;;;;;;29.00;68.60;;;;;;4974885;28;20021;-61
2022/08/23 12:21:55;;;;;;;;;;;29.30;67.10;;;;;;4988353;28;20482;-65
2022/08/23 12:24:20;;;;;;;;;;;31.40;70.30;;;;;;4987836;28;19926;-63
2022/08/23 12:26:52;;;;;;;;;;;28.90;67.80;;;;;;4991180;28;20047;-61
2022/08/23 12:29:21;;;;;;;;;;;29.10;67.20;;;;;;5005165;28;19952;-63
2022/08/23 12:32:05;;;;;;;;;;;29.20;66.90;;;;;;5051714;28;19933;-62
2022/08/23 12:34:49;;;;;;;;;;;29.10;66.90;;;;;;5052218;28;20383;-61
2022/08/23 12:37:30;;;;;;;;;;;29.20;66.80;;;;;;5050103;28;20484;-62
2022/08/23 12:39:56;;;;;;;;;;;29.30;66.50;;;;;;5050791;28;19925;-63
2022/08/23 12:42:27;;;;;;;;;;;29.30;67.60;;;;;;5053366;28;19951;-62
2022/08/23 12:45:11;;;;;;;;;;;29.20;65.80;;;;;;5053182;28;20298;-61
2022/08/23 12:47:37;;;;;;;;;;;29.10;65.50;;;;;;5053458;28;19937;-63
2022/08/23 12:50:05;;;;;;;;;;;29.20;66.60;;;;;;5053396;28;19925;-61
2022/08/23 12:52:31;;;;;;;;;;;29.30;67.20;;;;;;5052792;28;19924;-62
2022/08/23 12:54:57;;;;;;;;;;;29.20;67.30;;;;;;5053265;28;19932;-63
2022/08/23 12:57:29;;;;;;;;;;;29.30;67.10;;;;;;5053780;28;20398;-63
2022/08/23 12:59:55;;;;;;;;;;;29.20;65.70;;;;;;5053249;28;20019;-62
2022/08/23 13:02:28;;;;;;;;;;;29.10;66.60;;;;;;5052491;28;20459;-72
2022/08/23 13:04:55;;;;;;;;;;;29.50;65.70;;;;;;5065394;28;19925;-71
2022/08/23 13:07:21;;;;;;;;;;;29.50;67.10;;;;;;5065799;28;20072;-62
2022/08/23 13:09:47;;;;;;;;;;;29.30;66.90;;;;;;5032980;28;19936;-62
2022/08/23 13:12:14;;;;;;;;;;;29.30;66.70;;;;;;5047086;28;19921;-62
2022/08/23 13:14:40;;;;;;;;;;;29.10;66.60;;;;;;5031464;28;19976;-62
2022/08/23 13:17:24;;;;;;;;;;;29.10;66.80;;;;;;5033610;28;20371;-68
2022/08/23 13:19:50;;;;;;;;;;;29.30;65.40;;;;;;5033518;28;19952;-72
2022/08/23 13:22:23;;;;;;;;;;;29.10;66.70;;;;;;5048571;28;19928;-61
2022/08/23 13:24:49;;;;;;;;;;;29.40;65.30;;;;;;5032103;28;19933;-62
2022/08/23 13:27:16;;;;;;;;;;;29.20;66.70;;;;;;5033382;28;19933;-63
2022/08/23 13:29:52;;;;;;;;;;;29.20;67.10;;;;;;5033901;28;19932;-61
2022/08/23 13:32:25;;;;;;;;;;;29.10;65.50;;;;;;5032492;28;20457;-63
2022/08/23 13:34:52;;;;;;;;;;;29.30;65.70;;;;;;5031372;28;20023;-63
2022/08/23 13:37:24;;;;;;;;;;;29.30;67.00;;;;;;5033059;28;19972;-63
2022/08/23 13:39:54;;;;;;;;;;;29.20;65.70;;;;;;5032509;28;20345;-62
2022/08/23 13:42:30;;;;;;;;;;;29.20;65.50;;;;;;5031224;28;20020;-61
2022/08/23 13:44:56;;;;;;;;;;;29.20;65.50;;;;;;5047813;28;19925;-61
2022/08/23 13:47:23;;;;;;;;;;;29.20;66.70;;;;;;5064515;28;19925;-63
2022/08/23 13:49:48;;;;;;;;;;;29.50;66.70;;;;;;5047878;28;19921;-63
2022/08/23 13:52:14;;;;;;;;;;;29.20;66.30;;;;;;5051039;28;19925;-61
2022/08/23 13:54:40;;;;;;;;;;;29.30;65.80;;;;;;5036598;28;19925;-62
2022/08/23 13:57:06;;;;;;;;;;;29.30;66.00;;;;;;5036319;28;19932;-62
2022/08/23 13:59:37;;;;;;;;;;;29.40;66.40;;;;;;5068892;28;19975;-61
2022/08/23 14:02:04;;;;;;;;;;;29.40;65.30;;;;;;5036679;28;19927;-62
2022/08/23 14:04:29;;;;;;;;;;;29.30;66.70;;;;;;5052438;28;19925;-61
2022/08/23 14:06:55;;;;;;;;;;;29.30;66.50;;;;;;5056193;28;20286;-61
2022/08/23 14:09:21;;;;;;;;;;;29.40;66.40;;;;;;5056261;28;19977;-62
2022/08/23 14:11:47;;;;;;;;;;;29.30;66.30;;;;;;5056237;28;20394;-61
2022/08/23 14:14:13;;;;;;;;;;;29.20;66.60;;;;;;5038018;28;19964;-61
2022/08/23 14:16:39;;;;;;;;;;;29.30;66.10;;;;;;5055107;28;20393;-62
2022/08/23 14:19:05;;;;;;;;;;;29.20;66.10;;;;;;5054848;28;19931;-62
2022/08/23 14:21:31;;;;;;;;;;;29.10;66.10;;;;;;5055355;28;19928;-61
2022/08/23 14:23:57;;;;;;;;;;;29.30;66.10;;;;;;5055481;28;19929;-61
2022/08/23 14:26:22;;;;;;;;;;;29.30;66.00;;;;;;5055433;28;19932;-62
2022/08/23 14:28:48;;;;;;;;;;;29.20;66.00;;;;;;5054597;28;20398;-62
2022/08/23 14:31:14;;;;;;;;;;;29.20;66.10;;;;;;5055841;28;20345;-62